createdAt,value
2018-11-12T00:00:04.357Z,7.87
2018-11-12T00:02:32.514Z,9.70
2018-11-12T00:05:00.671Z,8.65
2018-11-12T00:07:28.807Z,8.67
2018-11-12T00:09:56.946Z,7.70
2018-11-12T00:12:25.095Z,7.40
2018-11-12T00:14:53.203Z,11.00
2018-11-12T00:17:21.327Z,7.73
2018-11-12T00:19:49.483Z,7.30
2018-11-12T00:22:17.609Z,8.37
2018-11-12T00:24:45.762Z,10.07
2018-11-12T00:27:13.913Z,8.63
2018-11-12T00:29:42.050Z,7.73
2018-11-12T00:32:10.139Z,9.60
2018-11-12T00:34:38.591Z,7.60
2018-11-12T00:37:06.694Z,10.50
2018-11-12T00:39:34.801Z,10.68
2018-11-12T00:42:02.917Z,8.65
2018-11-12T00:44:31.072Z,8.68
2018-11-12T00:46:59.187Z,7.15
2018-11-12T00:50:30.772Z,7.60
2018-11-12T00:52:58.936Z,9.97
2018-11-12T00:55:27.094Z,14.58
2018-11-12T00:57:55.221Z,8.10
2018-11-12T01:00:23.348Z,9.40
2018-11-12T01:02:51.438Z,8.50
2018-11-12T01:05:20.093Z,9.58
2018-11-12T01:07:48.672Z,10.60
2018-11-12T01:10:17.782Z,9.23
2018-11-12T01:12:46.176Z,9.27
2018-11-12T01:15:15.566Z,9.17
2018-11-12T01:17:44.047Z,8.17
2018-11-12T01:20:13.471Z,10.35
2018-11-12T01:22:41.667Z,11.87
2018-11-12T01:25:11.067Z,13.48
2018-11-12T01:27:39.938Z,14.00
2018-11-12T01:30:10.060Z,8.50
2018-11-12T01:32:38.252Z,8.60
2018-11-12T01:35:07.270Z,11.60
2018-11-12T01:37:35.412Z,8.70
2018-11-12T01:40:03.572Z,11.80
2018-11-12T01:42:31.705Z,10.08
2018-11-12T01:44:59.845Z,9.60
2018-11-12T01:47:27.994Z,8.63
2018-11-12T01:49:56.113Z,14.23
2018-11-12T01:52:24.200Z,7.90
2018-11-12T01:54:52.345Z,8.07
2018-11-12T01:57:20.613Z,13.53
2018-11-12T01:59:48.712Z,7.97
2018-11-12T02:02:16.802Z,10.20
2018-11-12T02:04:45.008Z,9.30
2018-11-12T02:07:13.085Z,9.80
2018-11-12T02:09:41.213Z,12.67
2018-11-12T02:12:09.340Z,10.20
2018-11-12T02:14:37.587Z,11.10
2018-11-12T02:17:05.777Z,9.50
2018-11-12T02:19:33.925Z,16.27
2018-11-12T02:22:02.062Z,11.30
2018-11-12T02:24:30.234Z,9.80
2018-11-12T02:26:58.405Z,11.87
2018-11-12T02:29:26.587Z,11.50
2018-11-12T02:31:54.726Z,9.07
2018-11-12T02:34:22.860Z,13.50
2018-11-12T02:36:51.010Z,9.87
2018-11-12T02:39:19.089Z,9.83
2018-11-12T02:41:47.227Z,9.70
2018-11-12T02:44:15.356Z,10.10
2018-11-12T02:46:43.473Z,9.30
2018-11-12T02:49:11.609Z,8.93
2018-11-12T02:51:39.777Z,7.40
2018-11-12T02:54:07.993Z,10.80
2018-11-12T02:56:36.166Z,10.70
2018-11-12T02:59:04.334Z,9.00
2018-11-12T03:01:32.468Z,10.10
2018-11-12T03:04:00.597Z,8.53
2018-11-12T03:06:28.754Z,8.50
2018-11-12T03:08:56.886Z,7.90
2018-11-12T03:11:25.001Z,6.73
2018-11-12T03:13:53.157Z,7.50
2018-11-12T03:16:21.266Z,10.20
2018-11-12T03:18:49.421Z,9.27
2018-11-12T03:21:17.535Z,7.60
2018-11-12T03:23:46.302Z,8.30
2018-11-12T03:26:14.453Z,6.90
2018-11-12T03:28:43.384Z,8.00
2018-11-12T03:31:11.542Z,7.20
2018-11-12T03:33:39.690Z,6.62
2018-11-12T03:36:07.833Z,9.03
2018-11-12T03:38:35.981Z,6.42
2018-11-12T03:41:04.391Z,6.22
2018-11-12T03:43:32.501Z,6.35
2018-11-12T03:46:00.669Z,5.93
2018-11-12T03:48:28.798Z,7.07
2018-11-12T03:50:56.929Z,6.03
2018-11-12T03:53:25.005Z,6.83
2018-11-12T03:55:53.095Z,7.30
2018-11-12T03:58:21.189Z,6.90
2018-11-12T04:00:49.318Z,8.57
2018-11-12T04:03:17.442Z,7.93
2018-11-12T04:05:45.584Z,6.60
2018-11-12T04:08:13.708Z,7.30
2018-11-12T04:10:41.828Z,6.57
2018-11-12T04:13:09.986Z,5.20
2018-11-12T04:15:38.108Z,5.67
2018-11-12T04:18:06.229Z,5.90
2018-11-12T04:20:34.362Z,5.57
2018-11-12T04:23:03.549Z,6.30
2018-11-12T04:25:32.489Z,6.00
2018-11-12T04:28:00.693Z,7.83
2018-11-12T04:30:28.781Z,7.20
2018-11-12T04:32:56.877Z,7.90
2018-11-12T04:35:24.987Z,6.00
2018-11-12T04:37:53.123Z,6.30
2018-11-12T04:40:21.252Z,6.23
2018-11-12T04:42:49.682Z,6.37
2018-11-12T04:45:18.915Z,7.97
2018-11-12T04:47:47.879Z,5.80
2018-11-12T04:50:18.893Z,11.23
2018-11-12T04:52:47.115Z,6.47
2018-11-12T04:55:16.563Z,7.00
2018-11-12T04:57:45.133Z,7.00
2018-11-12T05:00:19.564Z,6.80
2018-11-12T05:02:47.700Z,13.40
2018-11-12T05:05:17.120Z,8.50
2018-11-12T05:07:45.596Z,7.23
2018-11-12T05:10:14.997Z,8.83
2018-11-12T05:12:44.625Z,10.82
2018-11-12T05:15:14.572Z,8.78
2018-11-12T05:17:42.786Z,8.43
2018-11-12T05:20:13.472Z,9.95
2018-11-12T05:22:41.622Z,9.85
2018-11-12T05:25:09.931Z,9.70
2018-11-12T05:27:38.092Z,12.00
2018-11-12T05:30:11.105Z,13.00
2018-11-12T05:32:39.217Z,8.57
2018-11-12T05:35:07.369Z,10.00
2018-11-12T05:37:35.799Z,10.10
2018-11-12T05:40:04.646Z,10.63
2018-11-12T05:42:32.817Z,11.33
2018-11-12T05:45:01.021Z,13.00
2018-11-12T05:47:29.106Z,11.67
2018-11-12T05:49:57.244Z,13.80
2018-11-12T05:52:25.349Z,10.73
2018-11-12T05:54:53.530Z,11.97
2018-11-12T05:57:21.669Z,9.63
2018-11-12T05:59:49.845Z,9.77
2018-11-12T06:02:18.016Z,12.30
2018-11-12T06:04:46.248Z,14.07
2018-11-12T06:07:14.710Z,15.67
2018-11-12T06:09:42.875Z,10.90
2018-11-12T06:12:11.028Z,15.25
2018-11-12T06:14:39.248Z,12.90
2018-11-12T06:17:07.393Z,13.03
2018-11-12T06:19:35.517Z,9.95
2018-11-12T06:22:03.771Z,13.85
2018-11-12T06:24:31.932Z,9.80
2018-11-12T06:27:00.113Z,10.65
2018-11-12T06:29:28.386Z,10.60
2018-11-12T06:31:56.528Z,10.47
2018-11-12T06:34:24.653Z,8.87
2018-11-12T06:36:52.863Z,10.33
2018-11-12T06:39:20.980Z,11.87
2018-11-12T06:41:49.130Z,9.13
2018-11-12T06:44:17.244Z,9.23
2018-11-12T06:46:45.402Z,12.17
2018-11-12T06:49:14.138Z,11.63
2018-11-12T06:51:42.361Z,10.60
2018-11-12T06:54:10.497Z,9.28
2018-11-12T06:56:38.598Z,8.67
2018-11-12T06:59:06.714Z,8.80
2018-11-12T07:01:34.882Z,8.05
2018-11-12T07:04:03.038Z,10.40
2018-11-12T07:06:31.363Z,9.33
2018-11-12T07:08:59.785Z,9.60
2018-11-12T07:11:27.968Z,10.32
2018-11-12T07:13:56.993Z,7.60
2018-11-12T07:16:25.760Z,11.28
2018-11-12T07:18:55.309Z,5.90
2018-11-12T07:21:24.702Z,7.30
2018-11-12T07:23:52.982Z,6.47
2018-11-12T07:26:21.250Z,8.63
2018-11-12T07:28:49.357Z,5.97
2018-11-12T07:31:17.551Z,7.13
2018-11-12T07:33:45.786Z,7.43
2018-11-12T07:36:13.881Z,5.43
2018-11-12T07:38:42.046Z,4.53
2018-11-12T07:41:10.183Z,4.90
2018-11-12T07:43:38.301Z,4.97
2018-11-12T07:46:06.389Z,4.70
2018-11-12T07:48:34.602Z,8.10
2018-11-12T07:51:02.702Z,4.30
2018-11-12T07:53:30.833Z,4.23
2018-11-12T07:55:58.939Z,4.27
2018-11-12T07:58:27.178Z,5.23
2018-11-12T08:00:55.313Z,4.23
2018-11-12T08:03:23.625Z,4.63
2018-11-12T08:05:53.033Z,6.40
2018-11-12T08:08:21.530Z,7.30
2018-11-12T08:10:49.663Z,10.40
2018-11-12T08:13:17.778Z,4.13
2018-11-12T08:15:45.937Z,6.73
2018-11-12T08:18:14.055Z,3.77
2018-11-12T08:20:42.170Z,4.43
2018-11-12T08:23:10.297Z,4.27
2018-11-12T08:25:38.465Z,5.00
2018-11-12T08:28:06.595Z,8.10
2018-11-12T08:30:34.735Z,4.30
2018-11-12T08:33:02.956Z,4.07
2018-11-12T08:35:31.070Z,4.50
2018-11-12T08:37:59.503Z,4.78
2018-11-12T08:40:28.661Z,4.60
2018-11-12T08:42:56.725Z,4.87
2018-11-12T08:45:24.866Z,5.50
2018-11-12T08:47:54.152Z,4.00
2018-11-12T08:50:24.458Z,4.33
2018-11-12T08:52:53.337Z,4.87
2018-11-12T08:55:22.827Z,5.13
2018-11-12T08:57:54.045Z,4.60
2018-11-12T09:00:23.041Z,5.15
2018-11-12T09:02:51.272Z,10.60
2018-11-12T09:05:20.413Z,4.17
2018-11-12T09:07:50.021Z,4.00
2018-11-12T09:10:20.179Z,3.90
2018-11-12T09:12:48.309Z,5.07
2018-11-12T09:15:16.616Z,4.70
2018-11-12T09:17:45.709Z,4.70
2018-11-12T09:20:16.456Z,4.60
2018-11-12T09:22:44.667Z,4.65
2018-11-12T09:25:14.557Z,4.60
2018-11-12T09:27:42.677Z,4.60
2018-11-12T09:30:15.806Z,5.10
2018-11-12T09:32:44.302Z,5.57
2018-11-12T09:35:29.926Z,6.17
2018-11-12T09:37:58.738Z,4.07
2018-11-12T09:40:29.102Z,5.03
2018-11-12T09:42:57.275Z,5.07
2018-11-12T09:45:25.403Z,5.05
2018-11-12T09:47:53.641Z,6.03
2018-11-12T09:50:22.847Z,8.83
2018-11-12T09:52:52.124Z,5.97
2018-11-12T09:55:20.945Z,6.00
2018-11-12T09:57:50.551Z,6.57
2018-11-12T10:00:19.783Z,6.90
2018-11-12T10:02:49.222Z,11.20
2018-11-12T10:05:18.199Z,7.65
2018-11-12T10:07:47.566Z,10.73
2018-11-12T10:10:56.158Z,6.90
2018-11-12T10:13:27.082Z,6.63
2018-11-12T10:15:55.047Z,6.53
2018-11-12T10:18:21.144Z,6.90
2018-11-12T10:20:49.268Z,6.67
2018-11-12T10:23:17.785Z,6.87
2018-11-12T10:25:45.989Z,6.50
2018-11-12T10:28:14.272Z,6.83
2018-11-12T10:30:42.433Z,6.67
2018-11-12T10:33:10.533Z,5.40
2018-11-12T10:35:38.660Z,6.27
2018-11-12T10:38:07.394Z,5.70
2018-11-12T10:40:35.485Z,6.80
2018-11-12T10:43:03.590Z,6.50
2018-11-12T10:45:31.699Z,5.43
2018-11-12T10:47:59.892Z,6.28
2018-11-12T10:50:27.937Z,5.90
2018-11-12T10:52:56.067Z,6.65
2018-11-12T10:55:25.285Z,5.50
2018-11-12T10:57:53.610Z,5.45
2018-11-12T11:00:28.358Z,6.40
2018-11-12T11:03:03.250Z,6.77
2018-11-12T11:05:31.530Z,10.17
2018-11-12T11:07:59.691Z,6.33
2018-11-12T11:10:28.533Z,8.77
2018-11-12T11:12:57.900Z,7.30
2018-11-12T11:15:26.212Z,7.20
2018-11-12T11:17:54.301Z,10.00
2018-11-12T11:20:22.756Z,8.38
2018-11-12T11:22:50.881Z,6.83
2018-11-12T11:25:19.061Z,7.67
2018-11-12T11:27:47.210Z,9.68
2018-11-12T11:30:16.646Z,9.35
2018-11-12T11:32:45.023Z,11.48
2018-11-12T11:35:14.546Z,10.82
2018-11-12T11:37:42.675Z,12.90
2018-11-12T11:40:14.325Z,10.83
2018-11-12T11:42:42.433Z,12.10
2018-11-12T11:45:11.641Z,13.10
2018-11-12T11:47:40.532Z,13.83
2018-11-12T11:50:09.968Z,16.00
2018-11-12T11:52:38.078Z,14.37
2018-11-12T11:55:09.006Z,15.93
2018-11-12T11:57:37.266Z,14.30
2018-11-12T12:00:09.186Z,13.83
2018-11-12T12:02:37.325Z,13.97
2018-11-12T12:05:06.845Z,12.20
2018-11-12T12:07:35.018Z,12.40
2018-11-12T12:10:03.148Z,11.15
2018-11-12T12:12:31.325Z,10.80
2018-11-12T12:14:59.449Z,11.37
2018-11-12T12:17:27.906Z,11.03
2018-11-12T12:19:56.136Z,10.13
2018-11-12T12:22:24.210Z,11.70
2018-11-12T12:24:52.408Z,12.13
2018-11-12T12:27:20.556Z,10.30
2018-11-12T12:29:48.685Z,10.90
2018-11-12T12:32:16.811Z,12.17
2018-11-12T12:34:44.963Z,11.37
2018-11-12T12:37:13.333Z,11.07
2018-11-12T12:39:41.478Z,11.10
2018-11-12T12:42:09.604Z,12.70
2018-11-12T12:44:37.802Z,11.63
2018-11-12T12:47:06.154Z,12.33
2018-11-12T12:49:35.171Z,12.10
2018-11-12T12:52:03.634Z,11.43
2018-11-12T12:54:31.765Z,12.23
2018-11-12T12:56:59.877Z,12.90
2018-11-12T12:59:28.038Z,13.88
2018-11-12T13:01:56.238Z,13.53
2018-11-12T13:04:24.370Z,13.33
2018-11-12T13:06:52.517Z,12.43
2018-11-12T13:09:20.650Z,14.33
2018-11-12T13:11:48.781Z,16.05
2018-11-12T13:14:17.102Z,15.25
2018-11-12T13:16:45.145Z,18.98
2018-11-12T13:19:13.282Z,16.70
2018-11-12T13:21:41.466Z,19.53
2018-11-12T13:24:09.598Z,18.60
2018-11-12T13:26:37.999Z,25.70
2018-11-12T13:29:06.141Z,19.37
2018-11-12T13:31:34.294Z,20.27
2018-11-12T13:34:02.446Z,18.13
2018-11-12T13:36:30.622Z,16.40
2018-11-12T13:38:58.765Z,19.90
2018-11-12T13:41:26.885Z,16.90
2018-11-12T13:43:55.036Z,16.93
2018-11-12T13:46:27.329Z,16.47
2018-11-12T13:48:55.539Z,16.63
2018-11-12T13:51:23.664Z,17.73
2018-11-12T13:53:51.801Z,21.87
2018-11-12T13:56:19.887Z,18.67
2018-11-12T13:58:48.037Z,17.13
2018-11-12T14:01:16.174Z,17.20
2018-11-12T14:03:45.016Z,20.70
2018-11-12T14:06:13.129Z,21.50
2018-11-12T14:08:41.257Z,18.37
2018-11-12T14:11:09.389Z,16.03
2018-11-12T14:13:37.522Z,18.43
2018-11-12T14:16:05.917Z,16.13
2018-11-12T14:18:34.012Z,21.80
2018-11-12T14:21:02.336Z,19.10
2018-11-12T14:23:30.269Z,17.37
2018-11-12T14:25:58.395Z,16.93
2018-11-12T14:28:26.765Z,18.13
2018-11-12T14:30:54.872Z,16.97
2018-11-12T14:33:23.080Z,21.50
2018-11-12T14:35:51.207Z,18.37
2018-11-12T14:38:19.289Z,24.77
2018-11-12T14:40:47.433Z,16.62
2018-11-12T14:43:15.561Z,17.65
2018-11-12T14:45:43.702Z,16.30
2018-11-12T14:48:11.857Z,17.43
2018-11-12T14:50:40.203Z,22.53
2018-11-12T14:53:08.282Z,15.70
2018-11-12T14:55:36.417Z,18.00
2018-11-12T14:58:04.549Z,19.52
2018-11-12T15:00:32.741Z,18.07
2018-11-12T15:03:00.867Z,18.30
2018-11-12T15:05:29.012Z,20.80
2018-11-12T15:07:57.158Z,22.45
2018-11-12T15:10:25.277Z,21.50
2018-11-12T15:12:53.445Z,23.62
2018-11-12T15:15:21.611Z,22.37
2018-11-12T15:17:49.739Z,21.10
2018-11-12T15:20:19.046Z,23.60
2018-11-12T15:22:47.296Z,22.80
2018-11-12T15:25:17.135Z,27.57
2018-11-12T15:27:45.719Z,23.20
2018-11-12T15:30:16.255Z,26.00
2018-11-12T15:32:45.148Z,30.50
2018-11-12T15:35:13.830Z,22.53
2018-11-12T15:37:42.595Z,24.80
2018-11-12T15:40:11.313Z,25.17
2018-11-12T15:42:39.995Z,26.75
2018-11-12T15:45:10.444Z,24.10
2018-11-12T15:47:38.562Z,20.35
2018-11-12T15:50:11.965Z,26.30
2018-11-12T15:52:40.149Z,27.37
2018-11-12T15:55:08.794Z,22.57
2018-11-12T15:57:37.172Z,23.00
2018-11-12T16:00:06.676Z,25.57
2018-11-12T16:02:34.809Z,23.73
2018-11-12T16:05:02.977Z,23.17
2018-11-12T16:07:31.081Z,21.63
2018-11-12T16:09:59.254Z,27.73
2018-11-12T16:12:27.439Z,24.00
2018-11-12T16:14:55.705Z,29.40
2018-11-12T16:17:23.877Z,24.57
2018-11-12T16:19:52.045Z,31.53
2018-11-12T16:22:20.278Z,26.23
2018-11-12T16:24:48.439Z,25.20
2018-11-12T16:27:16.569Z,25.27
2018-11-12T16:29:44.728Z,27.90
2018-11-12T16:32:12.883Z,25.93
2018-11-12T16:34:41.194Z,30.60
2018-11-12T16:37:09.330Z,30.70
2018-11-12T16:39:37.466Z,29.63
2018-11-12T16:42:05.717Z,22.50
2018-11-12T16:44:33.853Z,28.53
2018-11-12T16:47:01.986Z,27.17
2018-11-12T16:49:30.130Z,24.07
2018-11-12T16:51:58.281Z,25.48
2018-11-12T16:54:26.409Z,31.47
2018-11-12T16:56:54.535Z,29.77
2018-11-12T16:59:22.673Z,33.20
2018-11-12T17:01:50.813Z,35.47
2018-11-12T17:04:18.946Z,27.20
2018-11-12T17:06:47.069Z,29.20
2018-11-12T17:09:16.131Z,32.40
2018-11-12T17:11:44.297Z,34.50
2018-11-12T17:14:12.397Z,25.70
2018-11-12T17:16:40.567Z,28.57
2018-11-12T17:19:08.929Z,27.07
2018-11-12T17:21:37.094Z,23.93
2018-11-12T17:24:05.361Z,29.43
2018-11-12T17:26:33.523Z,34.43
2018-11-12T17:29:01.677Z,38.67
2018-11-12T17:31:29.812Z,29.95
2018-11-12T17:38:57.889Z,42.58
2018-11-12T17:41:26.029Z,40.20
2018-11-12T17:43:54.205Z,47.13
2018-11-12T17:46:22.462Z,51.87
2018-11-12T17:48:50.718Z,46.87
2018-11-12T17:51:18.932Z,42.63
2018-11-12T17:53:47.061Z,41.07
2018-11-12T17:56:15.221Z,45.33
2018-11-12T17:58:43.350Z,42.70
2018-11-12T18:01:11.520Z,37.40
2018-11-12T18:03:40.649Z,41.92
2018-11-12T18:06:08.949Z,39.27
2018-11-12T18:08:37.106Z,39.03
2018-11-12T18:11:05.242Z,42.90
2018-11-12T18:13:33.420Z,38.00
2018-11-12T18:16:01.538Z,41.57
2018-11-12T18:18:29.736Z,33.10
2018-11-12T18:20:57.900Z,37.50
2018-11-12T18:23:26.221Z,31.37
2018-11-12T18:25:54.426Z,28.27
2018-11-12T18:28:22.633Z,34.30
2018-11-12T18:30:51.214Z,30.63
2018-11-12T18:33:19.161Z,36.13
2018-11-12T18:35:47.365Z,33.23
2018-11-12T18:38:15.552Z,28.02
2018-11-12T18:40:43.686Z,32.03
2018-11-12T18:43:11.966Z,33.33
2018-11-12T18:45:40.100Z,31.40
2018-11-12T18:48:08.245Z,28.70
2018-11-12T18:50:36.429Z,29.67
2018-11-12T18:53:04.674Z,27.37
2018-11-12T18:55:33.045Z,28.97
2018-11-12T18:58:01.189Z,28.17
2018-11-12T19:00:29.358Z,31.33
2018-11-12T19:02:57.574Z,29.73
2018-11-12T19:05:28.293Z,34.33
2018-11-12T19:07:57.939Z,34.03
2018-11-12T19:10:30.258Z,30.70
2018-11-12T19:12:58.504Z,31.23
2018-11-12T19:15:28.273Z,35.67
2018-11-12T19:17:59.149Z,34.37
2018-11-12T19:20:27.329Z,31.03
2018-11-12T19:22:55.625Z,34.10
2018-11-12T19:25:24.110Z,34.13
2018-11-12T19:27:52.282Z,34.10
2018-11-12T19:30:21.779Z,31.30
2018-11-12T19:32:49.940Z,32.80
2018-11-12T19:35:19.462Z,30.47
2018-11-12T19:37:47.640Z,29.63
2018-11-12T19:40:17.088Z,31.93
2018-11-12T19:42:46.241Z,30.53
2018-11-12T19:45:14.736Z,32.03
2018-11-12T19:47:43.080Z,32.50
2018-11-12T19:50:15.304Z,29.57
2018-11-12T19:52:44.812Z,31.07
2018-11-12T19:55:13.185Z,34.30
2018-11-12T19:57:41.578Z,31.93
2018-11-12T20:00:11.392Z,37.13
2018-11-12T20:02:39.897Z,31.70
2018-11-12T20:05:08.175Z,29.40
2018-11-12T20:07:36.617Z,37.27
2018-11-12T20:10:07.566Z,36.55
2018-11-12T20:12:35.725Z,35.85
2018-11-12T20:15:03.894Z,38.80
2018-11-12T20:17:32.040Z,42.10
2018-11-12T20:20:00.195Z,35.35
2018-11-12T20:22:28.363Z,36.30
2018-11-12T20:24:56.604Z,39.23
2018-11-12T20:27:24.739Z,40.40
2018-11-12T20:29:52.892Z,40.03
2018-11-12T20:32:21.356Z,41.63
2018-11-12T20:34:49.511Z,46.10
2018-11-12T20:37:17.642Z,37.88
2018-11-12T20:39:45.802Z,40.40
2018-11-12T20:42:13.950Z,46.60
2018-11-12T20:44:42.188Z,44.30
2018-11-12T20:47:10.330Z,42.00
2018-11-12T20:49:38.505Z,41.90
2018-11-12T20:52:06.678Z,44.10
2018-11-12T20:54:34.830Z,41.33
2018-11-12T20:57:03.025Z,44.43
2018-11-12T20:59:31.154Z,40.73
2018-11-12T21:01:59.291Z,43.20
2018-11-12T21:04:27.430Z,40.53
2018-11-12T21:06:55.609Z,40.20
2018-11-12T21:09:23.789Z,44.00
2018-11-12T21:11:52.022Z,39.83
2018-11-12T21:14:20.154Z,39.07
2018-11-12T21:16:48.302Z,34.17
2018-11-12T21:19:16.512Z,31.07
2018-11-12T21:21:44.651Z,33.47
2018-11-12T21:24:12.865Z,29.73
2018-11-12T21:26:41.020Z,31.95
2018-11-12T21:29:09.307Z,36.93
2018-11-12T21:31:37.436Z,34.30
2018-11-12T21:34:05.884Z,35.73
2018-11-12T21:36:34.429Z,34.00
2018-11-12T21:39:02.606Z,35.97
2018-11-12T21:41:30.742Z,39.07
2018-11-12T21:43:59.730Z,40.55
2018-11-12T21:46:27.936Z,43.50
2018-11-12T21:48:56.081Z,42.10
2018-11-12T21:51:24.272Z,45.47
2018-11-12T21:53:52.449Z,48.70
2018-11-12T21:56:20.630Z,52.70
2018-11-12T21:58:48.912Z,51.77
2018-11-12T22:01:17.211Z,43.70
2018-11-12T22:03:46.656Z,48.83
2018-11-12T22:06:14.806Z,42.67
2018-11-12T22:08:43.083Z,51.23
2018-11-12T22:11:11.184Z,50.90
2018-11-12T22:13:40.172Z,52.88
2018-11-12T22:16:08.498Z,52.05
2018-11-12T22:18:36.698Z,41.43
2018-11-12T22:21:05.026Z,42.27
2018-11-12T22:23:33.260Z,41.20
2018-11-12T22:26:01.430Z,39.23
2018-11-12T22:28:29.602Z,34.77
2018-11-12T22:30:57.813Z,38.60
2018-11-12T22:33:26.114Z,36.00
2018-11-12T22:35:54.318Z,39.20
2018-11-12T22:38:22.530Z,38.27
2018-11-12T22:40:50.673Z,39.37
2018-11-12T22:43:18.854Z,38.23
2018-11-12T22:45:47.059Z,33.43
2018-11-12T22:48:15.225Z,31.10
2018-11-12T22:50:43.441Z,36.67
2018-11-12T22:53:11.685Z,29.83
2018-11-12T22:55:39.922Z,26.90
2018-11-12T22:58:08.288Z,26.30
2018-11-12T23:00:39.085Z,28.67
2018-11-12T23:03:07.973Z,30.27
2018-11-12T23:05:36.242Z,27.57
2018-11-12T23:08:04.465Z,26.60
2018-11-12T23:10:32.694Z,26.97
2018-11-12T23:13:00.857Z,26.12
2018-11-12T23:15:29.043Z,26.43
2018-11-12T23:17:57.279Z,29.63
2018-11-12T23:20:27.127Z,29.20
2018-11-12T23:22:55.276Z,25.72
2018-11-12T23:25:23.455Z,25.73
2018-11-12T23:27:52.330Z,27.00
2018-11-12T23:30:21.942Z,28.50
2018-11-12T23:32:50.248Z,28.97
2018-11-12T23:35:22.720Z,29.15
2018-11-12T23:37:51.241Z,29.53
2018-11-12T23:40:19.462Z,26.10
2018-11-12T23:42:48.070Z,29.10
2018-11-12T23:45:16.214Z,23.20
2018-11-12T23:47:44.393Z,29.37
2018-11-12T23:50:14.903Z,26.00
2018-11-12T23:52:43.719Z,26.27
2018-11-12T23:55:12.287Z,26.05
2018-11-12T23:57:40.554Z,25.15
